sensor_id;sensor_type;location;lat;lon;timestamp;temperature;humidity
59973;DHT22;55298;-36.624;-64.282;2023-08-20T00:02:12;6.90;99.90
59973;DHT22;55298;-36.624;-64.282;2023-08-20T00:04:42;6.90;99.90
59973;DHT22;55298;-36.624;-64.282;2023-08-20T00:07:10;6.90;99.90
59973;DHT22;55298;-36.624;-64.282;2023-08-20T00:09:38;6.90;99.90
59973;DHT22;55298;-36.624;-64.282;2023-08-20T00:12:06;6.90;99.90
59973;DHT22;55298;-36.624;-64.282;2023-08-20T00:14:55;6.90;99.90
59973;DHT22;55298;-36.624;-64.282;2023-08-20T00:17:25;6.90;99.90
59973;DHT22;55298;-36.624;-64.282;2023-08-20T00:19:54;7.00;99.90
59973;DHT22;55298;-36.624;-64.282;2023-08-20T00:22:24;7.00;99.90
59973;DHT22;55298;-36.624;-64.282;2023-08-20T00:24:53;6.90;99.90
59973;DHT22;55298;-36.624;-64.282;2023-08-20T00:27:21;6.90;99.90
59973;DHT22;55298;-36.624;-64.282;2023-08-20T00:29:49;6.90;99.90
59973;DHT22;55298;-36.624;-64.282;2023-08-20T00:32:16;6.90;99.90
59973;DHT22;55298;-36.624;-64.282;2023-08-20T00:34:44;6.90;99.90
59973;DHT22;55298;-36.624;-64.282;2023-08-20T00:37:13;6.80;99.90
59973;DHT22;55298;-36.624;-64.282;2023-08-20T00:39:41;6.90;99.90
59973;DHT22;55298;-36.624;-64.282;2023-08-20T00:42:09;6.90;99.90
59973;DHT22;55298;-36.624;-64.282;2023-08-20T00:44:37;6.90;99.90
59973;DHT22;55298;-36.624;-64.282;2023-08-20T00:47:05;6.80;99.90
59973;DHT22;55298;-36.624;-64.282;2023-08-20T00:49:33;6.90;99.90
59973;DHT22;55298;-36.624;-64.282;2023-08-20T00:52:02;6.90;99.90
59973;DHT22;55298;-36.624;-64.282;2023-08-20T00:54:32;6.90;99.90
59973;DHT22;55298;-36.624;-64.282;2023-08-20T00:57:01;6.90;99.90
59973;DHT22;55298;-36.624;-64.282;2023-08-20T00:59:32;6.90;99.90
59973;DHT22;55298;-36.624;-64.282;2023-08-20T01:02:00;6.90;99.90
59973;DHT22;55298;-36.624;-64.282;2023-08-20T01:04:30;6.80;99.90
59973;DHT22;55298;-36.624;-64.282;2023-08-20T01:07:14;6.90;99.90
59973;DHT22;55298;-36.624;-64.282;2023-08-20T01:10:06;6.90;99.90
59973;DHT22;55298;-36.624;-64.282;2023-08-20T01:12:36;6.80;99.90
59973;DHT22;55298;-36.624;-64.282;2023-08-20T01:15:05;6.80;99.90
59973;DHT22;55298;-36.624;-64.282;2023-08-20T01:17:35;6.80;99.90
59973;DHT22;55298;-36.624;-64.282;2023-08-20T01:20:02;6.80;99.90
59973;DHT22;55298;-36.624;-64.282;2023-08-20T01:25:44;6.80;99.90
59973;DHT22;55298;-36.624;-64.282;2023-08-20T01:28:25;6.80;99.90
59973;DHT22;55298;-36.624;-64.282;2023-08-20T01:30:54;6.80;99.90
59973;DHT22;55298;-36.624;-64.282;2023-08-20T01:33:23;6.80;99.90
59973;DHT22;55298;-36.624;-64.282;2023-08-20T01:35:53;6.80;99.90
59973;DHT22;55298;-36.624;-64.282;2023-08-20T01:38:22;6.80;99.90
59973;DHT22;55298;-36.624;-64.282;2023-08-20T01:40:50;6.90;99.90
59973;DHT22;55298;-36.624;-64.282;2023-08-20T01:43:17;6.80;99.90
59973;DHT22;55298;-36.624;-64.282;2023-08-20T01:45:45;6.80;99.90
59973;DHT22;55298;-36.624;-64.282;2023-08-20T01:48:13;6.80;99.90
59973;DHT22;55298;-36.624;-64.282;2023-08-20T01:50:40;6.80;99.90
59973;DHT22;55298;-36.624;-64.282;2023-08-20T01:53:08;6.90;99.90
59973;DHT22;55298;-36.624;-64.282;2023-08-20T01:55:39;6.80;99.90
59973;DHT22;55298;-36.624;-64.282;2023-08-20T01:58:10;6.80;99.90
59973;DHT22;55298;-36.624;-64.282;2023-08-20T02:00:37;6.80;99.90
59973;DHT22;55298;-36.624;-64.282;2023-08-20T02:03:06;6.80;99.90
59973;DHT22;55298;-36.624;-64.282;2023-08-20T02:05:34;6.80;99.90
59973;DHT22;55298;-36.624;-64.282;2023-08-20T02:08:02;6.70;99.90
59973;DHT22;55298;-36.624;-64.282;2023-08-20T02:10:29;6.70;99.90
59973;DHT22;55298;-36.624;-64.282;2023-08-20T02:12:57;6.70;99.90
59973;DHT22;55298;-36.624;-64.282;2023-08-20T02:15:25;6.70;99.90
59973;DHT22;55298;-36.624;-64.282;2023-08-20T02:17:53;6.70;99.90
59973;DHT22;55298;-36.624;-64.282;2023-08-20T02:20:20;6.60;99.90
59973;DHT22;55298;-36.624;-64.282;2023-08-20T02:22:48;6.60;99.90
59973;DHT22;55298;-36.624;-64.282;2023-08-20T02:25:15;6.60;99.90
59973;DHT22;55298;-36.624;-64.282;2023-08-20T02:27:43;6.60;99.90
59973;DHT22;55298;-36.624;-64.282;2023-08-20T02:30:12;6.60;99.90
59973;DHT22;55298;-36.624;-64.282;2023-08-20T02:32:40;6.50;99.90
59973;DHT22;55298;-36.624;-64.282;2023-08-20T02:35:08;6.60;99.90
59973;DHT22;55298;-36.624;-64.282;2023-08-20T02:37:36;6.50;99.90
59973;DHT22;55298;-36.624;-64.282;2023-08-20T02:40:05;6.60;99.90
59973;DHT22;55298;-36.624;-64.282;2023-08-20T02:42:33;6.50;99.90
59973;DHT22;55298;-36.624;-64.282;2023-08-20T02:45:00;6.50;99.90
59973;DHT22;55298;-36.624;-64.282;2023-08-20T02:47:28;6.50;99.90
59973;DHT22;55298;-36.624;-64.282;2023-08-20T02:49:55;6.50;99.90
59973;DHT22;55298;-36.624;-64.282;2023-08-20T02:52:24;6.50;99.90
59973;DHT22;55298;-36.624;-64.282;2023-08-20T02:54:52;6.50;99.90
59973;DHT22;55298;-36.624;-64.282;2023-08-20T02:57:20;6.60;99.90
59973;DHT22;55298;-36.624;-64.282;2023-08-20T02:59:48;6.50;99.90
59973;DHT22;55298;-36.624;-64.282;2023-08-20T03:02:15;6.60;99.90
59973;DHT22;55298;-36.624;-64.282;2023-08-20T03:04:44;6.60;99.90
59973;DHT22;55298;-36.624;-64.282;2023-08-20T03:07:12;6.60;99.90
59973;DHT22;55298;-36.624;-64.282;2023-08-20T03:09:41;6.70;99.90
59973;DHT22;55298;-36.624;-64.282;2023-08-20T03:12:09;6.70;99.90
59973;DHT22;55298;-36.624;-64.282;2023-08-20T03:14:46;6.70;99.90
59973;DHT22;55298;-36.624;-64.282;2023-08-20T03:17:15;6.60;99.90
59973;DHT22;55298;-36.624;-64.282;2023-08-20T03:19:55;6.70;99.90
59973;DHT22;55298;-36.624;-64.282;2023-08-20T03:22:25;6.70;99.90
59973;DHT22;55298;-36.624;-64.282;2023-08-20T03:24:54;6.70;99.90
59973;DHT22;55298;-36.624;-64.282;2023-08-20T03:27:25;6.70;99.90
59973;DHT22;55298;-36.624;-64.282;2023-08-20T03:29:54;6.80;99.90
59973;DHT22;55298;-36.624;-64.282;2023-08-20T03:32:21;6.80;99.90
59973;DHT22;55298;-36.624;-64.282;2023-08-20T03:34:55;6.80;99.90
59973;DHT22;55298;-36.624;-64.282;2023-08-20T03:37:23;6.80;99.90
59973;DHT22;55298;-36.624;-64.282;2023-08-20T03:39:51;6.80;99.90
59973;DHT22;55298;-36.624;-64.282;2023-08-20T03:42:19;6.90;99.90
59973;DHT22;55298;-36.624;-64.282;2023-08-20T03:44:50;6.90;99.90
59973;DHT22;55298;-36.624;-64.282;2023-08-20T03:47:22;6.80;99.90
59973;DHT22;55298;-36.624;-64.282;2023-08-20T03:49:54;6.90;99.90
59973;DHT22;55298;-36.624;-64.282;2023-08-20T03:52:21;6.90;99.90
59973;DHT22;55298;-36.624;-64.282;2023-08-20T03:54:49;6.90;99.90
59973;DHT22;55298;-36.624;-64.282;2023-08-20T03:57:17;6.80;99.90
59973;DHT22;55298;-36.624;-64.282;2023-08-20T03:59:45;6.80;99.90
59973;DHT22;55298;-36.624;-64.282;2023-08-20T04:02:14;6.80;99.90
59973;DHT22;55298;-36.624;-64.282;2023-08-20T04:04:42;6.90;99.90
59973;DHT22;55298;-36.624;-64.282;2023-08-20T04:07:10;6.80;99.90
59973;DHT22;55298;-36.624;-64.282;2023-08-20T04:09:37;6.80;99.90
59973;DHT22;55298;-36.624;-64.282;2023-08-20T04:12:07;6.80;99.90
59973;DHT22;55298;-36.624;-64.282;2023-08-20T04:14:35;6.90;99.90
59973;DHT22;55298;-36.624;-64.282;2023-08-20T04:17:03;6.80;99.90
59973;DHT22;55298;-36.624;-64.282;2023-08-20T04:19:31;6.80;99.90
59973;DHT22;55298;-36.624;-64.282;2023-08-20T04:21:59;6.80;99.90
59973;DHT22;55298;-36.624;-64.282;2023-08-20T04:24:27;6.80;99.90
59973;DHT22;55298;-36.624;-64.282;2023-08-20T04:26:55;6.70;99.90
59973;DHT22;55298;-36.624;-64.282;2023-08-20T04:29:23;6.80;99.90
59973;DHT22;55298;-36.624;-64.282;2023-08-20T04:31:54;6.80;99.90
59973;DHT22;55298;-36.624;-64.282;2023-08-20T04:34:22;6.80;99.90
59973;DHT22;55298;-36.624;-64.282;2023-08-20T04:36:50;6.80;99.90
59973;DHT22;55298;-36.624;-64.282;2023-08-20T04:39:19;6.90;99.90
59973;DHT22;55298;-36.624;-64.282;2023-08-20T04:41:46;6.90;99.90
59973;DHT22;55298;-36.624;-64.282;2023-08-20T04:44:14;6.80;99.90
59973;DHT22;55298;-36.624;-64.282;2023-08-20T04:46:42;6.80;99.90
59973;DHT22;55298;-36.624;-64.282;2023-08-20T04:49:10;6.80;99.90
59973;DHT22;55298;-36.624;-64.282;2023-08-20T04:51:38;6.70;99.90
59973;DHT22;55298;-36.624;-64.282;2023-08-20T04:54:05;6.70;99.90
59973;DHT22;55298;-36.624;-64.282;2023-08-20T04:56:36;6.70;99.90
59973;DHT22;55298;-36.624;-64.282;2023-08-20T04:59:03;6.70;99.90
59973;DHT22;55298;-36.624;-64.282;2023-08-20T05:01:31;6.60;99.90
59973;DHT22;55298;-36.624;-64.282;2023-08-20T05:03:59;6.60;99.90
59973;DHT22;55298;-36.624;-64.282;2023-08-20T05:06:27;6.60;99.90
59973;DHT22;55298;-36.624;-64.282;2023-08-20T05:08:54;6.50;99.90
59973;DHT22;55298;-36.624;-64.282;2023-08-20T05:11:22;6.50;99.90
59973;DHT22;55298;-36.624;-64.282;2023-08-20T05:13:50;6.50;99.90
59973;DHT22;55298;-36.624;-64.282;2023-08-20T05:16:18;6.50;99.90
59973;DHT22;55298;-36.624;-64.282;2023-08-20T05:18:46;6.50;99.90
59973;DHT22;55298;-36.624;-64.282;2023-08-20T05:21:14;6.50;99.90
59973;DHT22;55298;-36.624;-64.282;2023-08-20T05:23:42;6.50;99.90
59973;DHT22;55298;-36.624;-64.282;2023-08-20T05:26:10;6.50;99.90
59973;DHT22;55298;-36.624;-64.282;2023-08-20T05:28:38;6.50;99.90
59973;DHT22;55298;-36.624;-64.282;2023-08-20T05:31:06;6.50;99.90
59973;DHT22;55298;-36.624;-64.282;2023-08-20T05:33:33;6.50;99.90
59973;DHT22;55298;-36.624;-64.282;2023-08-20T05:36:01;6.50;99.90
59973;DHT22;55298;-36.624;-64.282;2023-08-20T05:38:29;6.60;99.90
59973;DHT22;55298;-36.624;-64.282;2023-08-20T05:40:57;6.50;99.90
59973;DHT22;55298;-36.624;-64.282;2023-08-20T05:43:24;6.50;99.90
59973;DHT22;55298;-36.624;-64.282;2023-08-20T05:45:52;6.60;99.90
59973;DHT22;55298;-36.624;-64.282;2023-08-20T05:48:20;6.60;99.90
59973;DHT22;55298;-36.624;-64.282;2023-08-20T05:50:48;6.50;99.90
59973;DHT22;55298;-36.624;-64.282;2023-08-20T05:53:16;6.50;99.90
59973;DHT22;55298;-36.624;-64.282;2023-08-20T05:55:43;6.50;99.90
59973;DHT22;55298;-36.624;-64.282;2023-08-20T05:58:11;6.40;99.90
59973;DHT22;55298;-36.624;-64.282;2023-08-20T06:00:39;6.40;99.90
59973;DHT22;55298;-36.624;-64.282;2023-08-20T06:03:08;6.40;99.90
59973;DHT22;55298;-36.624;-64.282;2023-08-20T06:05:36;6.40;99.90
59973;DHT22;55298;-36.624;-64.282;2023-08-20T06:08:04;6.40;99.90
59973;DHT22;55298;-36.624;-64.282;2023-08-20T06:10:33;6.40;99.90
59973;DHT22;55298;-36.624;-64.282;2023-08-20T06:13:00;6.30;99.90
59973;DHT22;55298;-36.624;-64.282;2023-08-20T06:15:28;6.40;99.90
59973;DHT22;55298;-36.624;-64.282;2023-08-20T06:17:58;6.40;99.90
59973;DHT22;55298;-36.624;-64.282;2023-08-20T06:20:26;6.30;99.90
59973;DHT22;55298;-36.624;-64.282;2023-08-20T06:22:53;6.30;99.90
59973;DHT22;55298;-36.624;-64.282;2023-08-20T06:25:21;6.30;99.90
59973;DHT22;55298;-36.624;-64.282;2023-08-20T06:27:49;6.30;99.90
59973;DHT22;55298;-36.624;-64.282;2023-08-20T06:30:17;6.20;99.90
59973;DHT22;55298;-36.624;-64.282;2023-08-20T06:32:45;6.20;99.90
59973;DHT22;55298;-36.624;-64.282;2023-08-20T06:35:13;6.20;99.90
59973;DHT22;55298;-36.624;-64.282;2023-08-20T06:37:41;6.20;99.90
59973;DHT22;55298;-36.624;-64.282;2023-08-20T06:40:09;6.20;99.90
59973;DHT22;55298;-36.624;-64.282;2023-08-20T06:42:37;6.20;99.90
59973;DHT22;55298;-36.624;-64.282;2023-08-20T06:45:05;6.20;99.90
59973;DHT22;55298;-36.624;-64.282;2023-08-20T06:47:34;6.20;99.90
59973;DHT22;55298;-36.624;-64.282;2023-08-20T06:50:03;6.20;99.90
59973;DHT22;55298;-36.624;-64.282;2023-08-20T06:52:33;6.20;99.90
59973;DHT22;55298;-36.624;-64.282;2023-08-20T06:55:00;6.20;99.90
59973;DHT22;55298;-36.624;-64.282;2023-08-20T06:57:28;6.20;99.90
59973;DHT22;55298;-36.624;-64.282;2023-08-20T06:59:56;6.20;99.90
59973;DHT22;55298;-36.624;-64.282;2023-08-20T07:02:24;6.20;99.90
59973;DHT22;55298;-36.624;-64.282;2023-08-20T07:04:51;6.20;99.90
59973;DHT22;55298;-36.624;-64.282;2023-08-20T07:07:19;6.20;99.90
59973;DHT22;55298;-36.624;-64.282;2023-08-20T07:09:47;6.20;99.90
59973;DHT22;55298;-36.624;-64.282;2023-08-20T07:12:15;6.20;99.90
59973;DHT22;55298;-36.624;-64.282;2023-08-20T07:14:43;6.20;99.90
59973;DHT22;55298;-36.624;-64.282;2023-08-20T07:17:11;6.20;99.90
59973;DHT22;55298;-36.624;-64.282;2023-08-20T07:19:38;6.20;99.90
59973;DHT22;55298;-36.624;-64.282;2023-08-20T07:22:06;6.20;99.90
59973;DHT22;55298;-36.624;-64.282;2023-08-20T07:24:34;6.20;99.90
59973;DHT22;55298;-36.624;-64.282;2023-08-20T07:27:03;6.10;99.90
59973;DHT22;55298;-36.624;-64.282;2023-08-20T07:29:38;6.20;99.90
59973;DHT22;55298;-36.624;-64.282;2023-08-20T07:32:06;6.10;99.90
59973;DHT22;55298;-36.624;-64.282;2023-08-20T07:34:34;6.20;99.90
59973;DHT22;55298;-36.624;-64.282;2023-08-20T07:37:02;6.20;99.90
59973;DHT22;55298;-36.624;-64.282;2023-08-20T07:39:31;6.20;99.90
59973;DHT22;55298;-36.624;-64.282;2023-08-20T07:41:59;6.20;99.90
59973;DHT22;55298;-36.624;-64.282;2023-08-20T07:44:27;6.20;99.90
59973;DHT22;55298;-36.624;-64.282;2023-08-20T07:46:55;6.20;99.90
59973;DHT22;55298;-36.624;-64.282;2023-08-20T07:49:22;6.20;99.90
59973;DHT22;55298;-36.624;-64.282;2023-08-20T07:51:50;6.20;99.90
59973;DHT22;55298;-36.624;-64.282;2023-08-20T07:54:19;6.10;99.90
59973;DHT22;55298;-36.624;-64.282;2023-08-20T07:56:47;6.10;99.90
59973;DHT22;55298;-36.624;-64.282;2023-08-20T07:59:14;6.10;99.90
59973;DHT22;55298;-36.624;-64.282;2023-08-20T08:01:42;6.10;99.90
59973;DHT22;55298;-36.624;-64.282;2023-08-20T08:04:10;6.10;99.90
59973;DHT22;55298;-36.624;-64.282;2023-08-20T08:06:38;6.10;99.90
59973;DHT22;55298;-36.624;-64.282;2023-08-20T08:09:25;6.10;99.90
59973;DHT22;55298;-36.624;-64.282;2023-08-20T08:11:53;6.10;99.90
59973;DHT22;55298;-36.624;-64.282;2023-08-20T08:14:25;6.10;99.90
59973;DHT22;55298;-36.624;-64.282;2023-08-20T08:16:53;6.10;99.90
59973;DHT22;55298;-36.624;-64.282;2023-08-20T08:19:20;6.10;99.90
59973;DHT22;55298;-36.624;-64.282;2023-08-20T08:21:48;6.10;99.90
59973;DHT22;55298;-36.624;-64.282;2023-08-20T08:24:16;6.10;99.90
59973;DHT22;55298;-36.624;-64.282;2023-08-20T08:26:44;6.00;99.90
59973;DHT22;55298;-36.624;-64.282;2023-08-20T08:29:12;6.10;99.90
59973;DHT22;55298;-36.624;-64.282;2023-08-20T08:31:40;6.10;99.90
59973;DHT22;55298;-36.624;-64.282;2023-08-20T08:34:07;6.10;99.90
59973;DHT22;55298;-36.624;-64.282;2023-08-20T08:36:35;6.10;99.90
59973;DHT22;55298;-36.624;-64.282;2023-08-20T08:39:02;6.10;99.90
59973;DHT22;55298;-36.624;-64.282;2023-08-20T08:41:31;6.10;99.90
59973;DHT22;55298;-36.624;-64.282;2023-08-20T08:44:03;6.10;99.90
59973;DHT22;55298;-36.624;-64.282;2023-08-20T08:46:32;6.00;99.90
59973;DHT22;55298;-36.624;-64.282;2023-08-20T08:49:00;6.10;99.90
59973;DHT22;55298;-36.624;-64.282;2023-08-20T08:51:29;6.00;99.90
59973;DHT22;55298;-36.624;-64.282;2023-08-20T08:53:57;6.20;99.90
59973;DHT22;55298;-36.624;-64.282;2023-08-20T08:56:26;6.00;99.90
59973;DHT22;55298;-36.624;-64.282;2023-08-20T08:58:54;6.00;99.90
59973;DHT22;55298;-36.624;-64.282;2023-08-20T09:01:22;6.00;99.90
59973;DHT22;55298;-36.624;-64.282;2023-08-20T09:03:50;6.00;99.90
59973;DHT22;55298;-36.624;-64.282;2023-08-20T09:06:17;6.00;99.90
59973;DHT22;55298;-36.624;-64.282;2023-08-20T09:08:45;6.00;99.90
59973;DHT22;55298;-36.624;-64.282;2023-08-20T09:11:13;6.00;99.90
59973;DHT22;55298;-36.624;-64.282;2023-08-20T09:13:42;6.00;99.90
59973;DHT22;55298;-36.624;-64.282;2023-08-20T09:16:11;6.00;99.90
59973;DHT22;55298;-36.624;-64.282;2023-08-20T09:18:44;6.00;99.90
59973;DHT22;55298;-36.624;-64.282;2023-08-20T09:21:13;6.00;99.90
59973;DHT22;55298;-36.624;-64.282;2023-08-20T09:23:45;6.00;99.90
59973;DHT22;55298;-36.624;-64.282;2023-08-20T09:26:13;6.00;99.90
59973;DHT22;55298;-36.624;-64.282;2023-08-20T09:28:43;6.00;99.90
59973;DHT22;55298;-36.624;-64.282;2023-08-20T09:31:12;6.10;99.90
59973;DHT22;55298;-36.624;-64.282;2023-08-20T09:33:50;6.00;99.90
59973;DHT22;55298;-36.624;-64.282;2023-08-20T09:36:29;6.00;99.90
59973;DHT22;55298;-36.624;-64.282;2023-08-20T09:38:57;6.00;99.90
59973;DHT22;55298;-36.624;-64.282;2023-08-20T09:41:26;6.00;99.90
59973;DHT22;55298;-36.624;-64.282;2023-08-20T09:43:57;6.00;99.90
59973;DHT22;55298;-36.624;-64.282;2023-08-20T09:46:26;6.00;99.90
59973;DHT22;55298;-36.624;-64.282;2023-08-20T09:48:57;6.00;99.90
59973;DHT22;55298;-36.624;-64.282;2023-08-20T09:51:27;6.00;99.90
59973;DHT22;55298;-36.624;-64.282;2023-08-20T09:56:56;6.00;99.90
59973;DHT22;55298;-36.624;-64.282;2023-08-20T09:59:26;6.00;99.90
59973;DHT22;55298;-36.624;-64.282;2023-08-20T10:01:55;6.00;99.90
59973;DHT22;55298;-36.624;-64.282;2023-08-20T10:04:24;6.00;99.90
59973;DHT22;55298;-36.624;-64.282;2023-08-20T10:06:53;6.00;99.90
59973;DHT22;55298;-36.624;-64.282;2023-08-20T10:09:21;6.00;99.90
59973;DHT22;55298;-36.624;-64.282;2023-08-20T10:11:50;6.00;99.90
59973;DHT22;55298;-36.624;-64.282;2023-08-20T10:14:18;6.00;99.90
59973;DHT22;55298;-36.624;-64.282;2023-08-20T10:16:46;6.00;99.90
59973;DHT22;55298;-36.624;-64.282;2023-08-20T10:19:16;6.00;99.90
59973;DHT22;55298;-36.624;-64.282;2023-08-20T10:21:44;6.00;99.90
59973;DHT22;55298;-36.624;-64.282;2023-08-20T10:24:17;6.00;99.90
59973;DHT22;55298;-36.624;-64.282;2023-08-20T10:26:45;6.00;99.90
59973;DHT22;55298;-36.624;-64.282;2023-08-20T10:32:00;6.00;99.90
59973;DHT22;55298;-36.624;-64.282;2023-08-20T10:34:37;5.90;99.90
59973;DHT22;55298;-36.624;-64.282;2023-08-20T10:37:15;6.00;99.90
59973;DHT22;55298;-36.624;-64.282;2023-08-20T10:39:43;5.90;99.90
59973;DHT22;55298;-36.624;-64.282;2023-08-20T10:42:26;5.90;99.90
59973;DHT22;55298;-36.624;-64.282;2023-08-20T10:44:57;5.90;99.90
59973;DHT22;55298;-36.624;-64.282;2023-08-20T10:47:34;5.90;99.90
59973;DHT22;55298;-36.624;-64.282;2023-08-20T10:50:04;5.90;99.90
59973;DHT22;55298;-36.624;-64.282;2023-08-20T10:52:32;6.00;99.90
59973;DHT22;55298;-36.624;-64.282;2023-08-20T10:55:00;5.90;99.90
59973;DHT22;55298;-36.624;-64.282;2023-08-20T10:57:35;5.90;99.90
59973;DHT22;55298;-36.624;-64.282;2023-08-20T11:00:05;5.90;99.90
59973;DHT22;55298;-36.624;-64.282;2023-08-20T11:02:38;6.00;99.90
59973;DHT22;55298;-36.624;-64.282;2023-08-20T11:05:18;5.90;99.90
59973;DHT22;55298;-36.624;-64.282;2023-08-20T11:07:47;5.90;99.90
59973;DHT22;55298;-36.624;-64.282;2023-08-20T11:10:17;5.90;99.90
59973;DHT22;55298;-36.624;-64.282;2023-08-20T11:12:47;6.00;99.90
59973;DHT22;55298;-36.624;-64.282;2023-08-20T11:15:14;6.00;99.90
59973;DHT22;55298;-36.624;-64.282;2023-08-20T11:17:50;6.00;99.90
59973;DHT22;55298;-36.624;-64.282;2023-08-20T11:20:17;6.00;99.90
59973;DHT22;55298;-36.624;-64.282;2023-08-20T11:22:45;6.00;99.90
59973;DHT22;55298;-36.624;-64.282;2023-08-20T11:25:14;6.00;99.90
59973;DHT22;55298;-36.624;-64.282;2023-08-20T11:27:43;6.10;99.90
59973;DHT22;55298;-36.624;-64.282;2023-08-20T11:30:11;6.10;99.90
59973;DHT22;55298;-36.624;-64.282;2023-08-20T11:32:40;6.10;99.90
59973;DHT22;55298;-36.624;-64.282;2023-08-20T11:35:11;6.10;99.90
59973;DHT22;55298;-36.624;-64.282;2023-08-20T11:37:41;6.00;99.90
59973;DHT22;55298;-36.624;-64.282;2023-08-20T11:40:09;6.20;99.90
59973;DHT22;55298;-36.624;-64.282;2023-08-20T11:42:38;6.20;99.90
59973;DHT22;55298;-36.624;-64.282;2023-08-20T11:45:06;6.20;99.90
59973;DHT22;55298;-36.624;-64.282;2023-08-20T11:47:41;6.20;99.90
59973;DHT22;55298;-36.624;-64.282;2023-08-20T11:50:09;6.20;99.90
59973;DHT22;55298;-36.624;-64.282;2023-08-20T11:52:38;6.30;99.90
59973;DHT22;55298;-36.624;-64.282;2023-08-20T11:55:07;6.20;99.90
59973;DHT22;55298;-36.624;-64.282;2023-08-20T11:57:36;6.30;99.90
59973;DHT22;55298;-36.624;-64.282;2023-08-20T12:00:06;6.30;99.90
59973;DHT22;55298;-36.624;-64.282;2023-08-20T12:02:36;6.30;99.90
59973;DHT22;55298;-36.624;-64.282;2023-08-20T12:05:04;6.30;99.90
59973;DHT22;55298;-36.624;-64.282;2023-08-20T12:07:32;6.30;99.90
59973;DHT22;55298;-36.624;-64.282;2023-08-20T12:10:19;6.40;99.90
59973;DHT22;55298;-36.624;-64.282;2023-08-20T12:12:50;6.50;99.90
59973;DHT22;55298;-36.624;-64.282;2023-08-20T12:15:18;6.40;99.90
59973;DHT22;55298;-36.624;-64.282;2023-08-20T12:17:57;6.50;99.90
59973;DHT22;55298;-36.624;-64.282;2023-08-20T12:20:27;6.30;99.90
59973;DHT22;55298;-36.624;-64.282;2023-08-20T12:22:59;6.50;99.90
59973;DHT22;55298;-36.624;-64.282;2023-08-20T12:25:29;6.60;99.90
59973;DHT22;55298;-36.624;-64.282;2023-08-20T12:27:57;6.60;99.90
59973;DHT22;55298;-36.624;-64.282;2023-08-20T12:30:25;6.70;99.90
59973;DHT22;55298;-36.624;-64.282;2023-08-20T12:32:52;6.70;99.90
59973;DHT22;55298;-36.624;-64.282;2023-08-20T12:35:20;6.80;99.90
59973;DHT22;55298;-36.624;-64.282;2023-08-20T12:37:48;6.80;99.90
59973;DHT22;55298;-36.624;-64.282;2023-08-20T12:40:16;6.80;99.90
59973;DHT22;55298;-36.624;-64.282;2023-08-20T12:42:44;6.90;99.90
59973;DHT22;55298;-36.624;-64.282;2023-08-20T12:45:12;7.00;99.90
59973;DHT22;55298;-36.624;-64.282;2023-08-20T12:47:40;7.00;99.90
59973;DHT22;55298;-36.624;-64.282;2023-08-20T12:50:08;7.00;99.90
59973;DHT22;55298;-36.624;-64.282;2023-08-20T12:52:36;7.00;99.90
59973;DHT22;55298;-36.624;-64.282;2023-08-20T12:55:04;7.00;99.90
59973;DHT22;55298;-36.624;-64.282;2023-08-20T12:57:35;7.10;99.90
59973;DHT22;55298;-36.624;-64.282;2023-08-20T13:00:03;7.10;99.90
59973;DHT22;55298;-36.624;-64.282;2023-08-20T13:02:38;7.10;99.90
59973;DHT22;55298;-36.624;-64.282;2023-08-20T13:05:06;7.20;99.90
59973;DHT22;55298;-36.624;-64.282;2023-08-20T13:07:36;7.20;99.90
59973;DHT22;55298;-36.624;-64.282;2023-08-20T13:10:04;7.30;99.90
59973;DHT22;55298;-36.624;-64.282;2023-08-20T13:12:32;7.30;99.90
59973;DHT22;55298;-36.624;-64.282;2023-08-20T13:15:01;7.30;99.90
59973;DHT22;55298;-36.624;-64.282;2023-08-20T13:17:30;7.10;99.90
59973;DHT22;55298;-36.624;-64.282;2023-08-20T13:19:58;7.10;99.90
59973;DHT22;55298;-36.624;-64.282;2023-08-20T13:22:26;7.10;99.90
59973;DHT22;55298;-36.624;-64.282;2023-08-20T13:24:54;7.20;99.90
59973;DHT22;55298;-36.624;-64.282;2023-08-20T13:27:22;7.30;99.90
59973;DHT22;55298;-36.624;-64.282;2023-08-20T13:29:51;7.20;99.90
59973;DHT22;55298;-36.624;-64.282;2023-08-20T13:32:18;7.50;99.90
59973;DHT22;55298;-36.624;-64.282;2023-08-20T13:34:46;7.60;99.90
59973;DHT22;55298;-36.624;-64.282;2023-08-20T13:37:14;7.60;99.90
59973;DHT22;55298;-36.624;-64.282;2023-08-20T13:39:41;7.60;99.90
59973;DHT22;55298;-36.624;-64.282;2023-08-20T13:42:09;7.90;99.90
59973;DHT22;55298;-36.624;-64.282;2023-08-20T13:44:37;8.10;99.90
59973;DHT22;55298;-36.624;-64.282;2023-08-20T13:47:05;8.60;99.90
59973;DHT22;55298;-36.624;-64.282;2023-08-20T13:49:32;8.80;99.90
59973;DHT22;55298;-36.624;-64.282;2023-08-20T13:52:00;9.40;99.90
59973;DHT22;55298;-36.624;-64.282;2023-08-20T13:54:30;9.90;99.90
59973;DHT22;55298;-36.624;-64.282;2023-08-20T13:56:58;10.20;99.90
59973;DHT22;55298;-36.624;-64.282;2023-08-20T13:59:25;10.30;99.90
59973;DHT22;55298;-36.624;-64.282;2023-08-20T14:01:53;10.20;99.90
59973;DHT22;55298;-36.624;-64.282;2023-08-20T14:04:21;10.10;99.90
59973;DHT22;55298;-36.624;-64.282;2023-08-20T14:06:50;10.10;99.90
59973;DHT22;55298;-36.624;-64.282;2023-08-20T14:09:18;10.10;99.90
59973;DHT22;55298;-36.624;-64.282;2023-08-20T14:11:46;10.30;99.90
59973;DHT22;55298;-36.624;-64.282;2023-08-20T14:14:14;10.50;99.90
59973;DHT22;55298;-36.624;-64.282;2023-08-20T14:16:43;10.60;99.90
59973;DHT22;55298;-36.624;-64.282;2023-08-20T14:19:11;11.00;99.90
59973;DHT22;55298;-36.624;-64.282;2023-08-20T14:21:40;11.40;99.90
59973;DHT22;55298;-36.624;-64.282;2023-08-20T14:24:08;11.60;99.90
59973;DHT22;55298;-36.624;-64.282;2023-08-20T14:26:36;11.70;99.90
59973;DHT22;55298;-36.624;-64.282;2023-08-20T14:29:06;11.50;98.80
59973;DHT22;55298;-36.624;-64.282;2023-08-20T14:31:39;11.50;99.50
59973;DHT22;55298;-36.624;-64.282;2023-08-20T14:34:06;11.70;99.60
59973;DHT22;55298;-36.624;-64.282;2023-08-20T14:36:35;11.80;98.30
59973;DHT22;55298;-36.624;-64.282;2023-08-20T14:39:04;11.80;97.20
59973;DHT22;55298;-36.624;-64.282;2023-08-20T14:41:32;11.80;97.50
59973;DHT22;55298;-36.624;-64.282;2023-08-20T14:44:00;12.50;97.10
59973;DHT22;55298;-36.624;-64.282;2023-08-20T14:46:28;11.50;97.40
59973;DHT22;55298;-36.624;-64.282;2023-08-20T14:48:56;11.40;97.80
59973;DHT22;55298;-36.624;-64.282;2023-08-20T14:51:24;11.50;97.90
59973;DHT22;55298;-36.624;-64.282;2023-08-20T14:53:51;11.50;97.80
59973;DHT22;55298;-36.624;-64.282;2023-08-20T14:56:19;11.30;98.20
59973;DHT22;55298;-36.624;-64.282;2023-08-20T14:58:47;11.20;98.80
59973;DHT22;55298;-36.624;-64.282;2023-08-20T15:01:16;11.00;98.90
59973;DHT22;55298;-36.624;-64.282;2023-08-20T15:03:44;11.20;99.20
59973;DHT22;55298;-36.624;-64.282;2023-08-20T15:06:12;11.20;99.10
59973;DHT22;55298;-36.624;-64.282;2023-08-20T15:08:41;11.30;99.50
59973;DHT22;55298;-36.624;-64.282;2023-08-20T15:11:09;11.40;99.10
59973;DHT22;55298;-36.624;-64.282;2023-08-20T15:13:38;11.70;98.90
59973;DHT22;55298;-36.624;-64.282;2023-08-20T15:16:16;11.90;98.50
59973;DHT22;55298;-36.624;-64.282;2023-08-20T15:19:06;12.00;97.30
59973;DHT22;55298;-36.624;-64.282;2023-08-20T15:21:36;12.30;98.00